Time;durP1;ratioP1;P1;durP2;ratioP2;P2;SDS_P1;SDS_P2;PMS_P1;PMS_P2;Temp;Humidity;BMP_temperature;BMP_pressure;BME280_temperature;BME280_humidity;BME280_pressure;Samples;Min_cycle;Max_cycle;Signal;HPM_P1;HPM_P2
2023/03/03 00:02:20;;;;;;;17.60;7.75;;;1.00;99.90;;;;;;4899356;29;20069;-85
2023/03/03 00:04:45;;;;;;;15.80;7.60;;;1.00;99.90;;;;;;4912913;29;20076;-84
2023/03/03 00:07:11;;;;;;;14.93;6.43;;;0.90;99.90;;;;;;4896438;29;20032;-85
2023/03/03 00:09:37;;;;;;;14.75;7.47;;;1.00;99.90;;;;;;4897371;29;20055;-84
2023/03/03 00:12:22;;;;;;;15.80;7.97;;;1.00;99.90;;;;;;4898810;29;20382;-84
2023/03/03 00:14:48;;;;;;;12.55;6.03;;;1.00;99.90;;;;;;4912815;29;20547;-84
2023/03/03 00:17:28;;;;;;;14.27;5.63;;;1.00;99.90;;;;;;4914822;29;20119;-84
2023/03/03 00:19:54;;;;;;;12.18;6.10;;;1.00;99.90;;;;;;4896947;29;20024;-84
2023/03/03 00:22:30;;;;;;;19.25;8.57;;;1.00;99.90;;;;;;4915882;29;20053;-84
2023/03/03 00:25:32;;;;;;;16.80;8.13;;;1.00;99.90;;;;;;4896912;29;20111;-84
2023/03/03 00:28:23;;;;;;;12.73;5.65;;;1.00;99.90;;;;;;4896806;29;20043;-85
2023/03/03 00:30:50;;;;;;;14.00;6.07;;;1.10;99.90;;;;;;4911619;29;20067;-83
2023/03/03 00:33:38;;;;;;;17.45;7.80;;;1.10;99.90;;;;;;4899126;29;20027;-84
2023/03/03 00:36:12;;;;;;;14.40;6.50;;;1.10;99.90;;;;;;4896808;29;20071;-84
2023/03/03 00:38:38;;;;;;;14.20;6.10;;;1.10;99.90;;;;;;4895786;29;20039;-84
2023/03/03 00:41:18;;;;;;;12.60;5.55;;;1.10;99.90;;;;;;4895561;29;20044;-84
2023/03/03 00:43:44;;;;;;;11.50;5.15;;;1.10;99.90;;;;;;4913256;29;20032;-84
2023/03/03 00:46:17;;;;;;;12.10;5.93;;;1.20;99.90;;;;;;4914567;29;20534;-84
2023/03/03 00:48:43;;;;;;;12.50;5.32;;;1.20;99.90;;;;;;4895610;29;20040;-85
2023/03/03 00:51:21;;;;;;;11.77;5.15;;;1.20;99.90;;;;;;4896179;29;20039;-84
2023/03/03 00:53:47;;;;;;;11.15;4.60;;;1.20;99.90;;;;;;4915518;29;20106;-84
2023/03/03 00:56:13;;;;;;;11.25;4.72;;;1.20;99.90;;;;;;4914805;29;20126;-84
2023/03/03 00:58:39;;;;;;;12.70;5.35;;;1.20;99.90;;;;;;4914483;29;20477;-84
2023/03/03 01:01:04;;;;;;;12.82;5.70;;;1.20;99.90;;;;;;4894895;29;20032;-84
2023/03/03 01:03:40;;;;;;;12.15;5.55;;;1.20;99.90;;;;;;4893194;29;20028;-84
2023/03/03 01:06:07;;;;;;;12.10;4.43;;;1.20;99.90;;;;;;4894083;29;20095;-85
2023/03/03 01:08:32;;;;;;;18.60;7.78;;;1.20;99.90;;;;;;4915103;29;20094;-84
2023/03/03 01:11:09;;;;;;;18.95;8.90;;;1.10;99.90;;;;;;4892529;29;20124;-84
2023/03/03 01:13:36;;;;;;;18.17;8.45;;;1.10;99.90;;;;;;4890138;29;20064;-84
2023/03/03 01:16:03;;;;;;;18.48;7.55;;;1.10;99.90;;;;;;4894863;29;20412;-84
2023/03/03 01:18:29;;;;;;;15.73;7.88;;;1.00;99.90;;;;;;4895136;29;20496;-84
2023/03/03 01:20:54;;;;;;;15.65;7.90;;;1.00;99.90;;;;;;4911115;29;20465;-84
2023/03/03 01:23:20;;;;;;;16.13;7.53;;;1.00;99.90;;;;;;4892358;29;20115;-84
2023/03/03 01:25:46;;;;;;;17.00;7.18;;;1.00;99.90;;;;;;4910771;29;20045;-84
2023/03/03 01:28:12;;;;;;;16.90;7.20;;;1.00;99.90;;;;;;4891193;29;20056;-84
2023/03/03 01:30:38;;;;;;;17.77;7.18;;;1.00;99.90;;;;;;4910502;29;20040;-84
2023/03/03 01:33:04;;;;;;;15.27;7.25;;;1.00;99.90;;;;;;4895189;29;20541;-84
2023/03/03 01:35:30;;;;;;;15.13;6.53;;;1.00;99.90;;;;;;4892864;29;20040;-84
2023/03/03 01:37:55;;;;;;;15.45;6.68;;;1.00;99.90;;;;;;4894397;29;20394;-84
2023/03/03 01:40:25;;;;;;;14.70;6.82;;;1.00;99.90;;;;;;4888152;29;20052;-85
2023/03/03 01:42:51;;;;;;;17.70;8.65;;;1.00;99.90;;;;;;4906526;29;20052;-84
2023/03/03 01:45:26;;;;;;;13.32;6.40;;;1.00;99.90;;;;;;4894092;29;20033;-83
2023/03/03 01:47:58;;;;;;;16.30;7.85;;;1.00;99.90;;;;;;4909431;29;20168;-85
2023/03/03 01:50:40;;;;;;;16.75;7.93;;;1.00;99.90;;;;;;4908847;29;20048;-83
2023/03/03 01:53:12;;;;;;;13.95;6.68;;;1.00;99.90;;;;;;4908490;29;20052;-85
2023/03/03 01:55:39;;;;;;;11.23;5.15;;;1.10;99.90;;;;;;4896226;29;20485;-84
2023/03/03 01:58:23;;;;;;;11.38;5.45;;;1.10;99.90;;;;;;4891320;29;20032;-85
2023/03/03 02:00:56;;;;;;;12.82;5.95;;;1.00;99.90;;;;;;4910470;29;20114;-84
2023/03/03 02:03:23;;;;;;;14.13;6.75;;;1.10;99.90;;;;;;4891125;29;20033;-84
2023/03/03 02:05:52;;;;;;;13.25;6.25;;;1.10;99.90;;;;;;4910613;29;20492;-84
2023/03/03 02:08:25;;;;;;;13.50;6.50;;;1.00;99.90;;;;;;4890896;29;20029;-84
2023/03/03 02:10:51;;;;;;;16.60;8.05;;;1.10;99.90;;;;;;4912352;29;20025;-84
2023/03/03 02:13:16;;;;;;;15.82;7.53;;;1.10;99.90;;;;;;4908495;29;20052;-84
2023/03/03 02:15:42;;;;;;;13.52;6.47;;;1.00;99.90;;;;;;4894975;29;20048;-84
2023/03/03 02:18:14;;;;;;;12.00;6.07;;;1.00;99.90;;;;;;4887683;29;20034;-84
2023/03/03 02:20:57;;;;;;;12.52;5.75;;;1.10;99.90;;;;;;4912855;29;20099;-84
2023/03/03 02:23:33;;;;;;;13.55;5.43;;;1.10;99.90;;;;;;4910442;29;20127;-84
2023/03/03 02:26:21;;;;;;;13.10;5.53;;;1.10;99.90;;;;;;4911778;29;20028;-84
2023/03/03 02:28:48;;;;;;;10.52;4.97;;;1.10;99.90;;;;;;4894170;29;20020;-85
2023/03/03 02:31:17;;;;;;;11.32;5.63;;;1.10;99.90;;;;;;4878345;29;20032;-84
2023/03/03 02:33:46;;;;;;;11.10;4.70;;;1.10;99.90;;;;;;4892127;29;20195;-84
2023/03/03 02:36:16;;;;;;;14.63;6.80;;;1.10;99.90;;;;;;4893569;29;20043;-84
2023/03/03 02:38:56;;;;;;;15.48;7.68;;;1.10;99.90;;;;;;4896693;29;20036;-83
2023/03/03 02:41:32;;;;;;;13.85;6.68;;;1.10;99.90;;;;;;4911573;29;20424;-84
2023/03/03 02:44:10;;;;;;;13.82;6.20;;;1.00;99.90;;;;;;4895795;29;20024;-83
2023/03/03 02:46:39;;;;;;;14.63;6.53;;;1.10;99.90;;;;;;4911559;29;20028;-85
2023/03/03 02:49:07;;;;;;;14.27;6.78;;;1.00;99.90;;;;;;4912180;29;20046;-84
2023/03/03 02:51:33;;;;;;;12.73;6.45;;;1.00;99.90;;;;;;4891081;29;20091;-84
2023/03/03 02:53:59;;;;;;;15.60;7.65;;;1.00;99.90;;;;;;4894173;29;20028;-84
2023/03/03 02:56:27;;;;;;;15.38;7.10;;;1.00;99.90;;;;;;4896409;29;20036;-84
2023/03/03 02:58:53;;;;;;;17.85;8.18;;;1.00;99.90;;;;;;4895604;29;20115;-84
2023/03/03 03:01:19;;;;;;;16.38;7.25;;;1.00;99.90;;;;;;4896494;29;20438;-82
2023/03/03 03:03:45;;;;;;;14.15;6.60;;;1.10;99.90;;;;;;4894753;29;20028;-83
2023/03/03 03:06:13;;;;;;;15.07;7.57;;;1.10;99.90;;;;;;4912899;29;20088;-83
2023/03/03 03:08:39;;;;;;;16.52;7.07;;;1.10;99.90;;;;;;4896462;29;20035;-84
2023/03/03 03:11:05;;;;;;;15.40;7.03;;;1.10;99.90;;;;;;4908496;29;20043;-84
2023/03/03 03:13:32;;;;;;;14.60;7.03;;;1.10;99.90;;;;;;4895805;29;20028;-83
2023/03/03 03:15:59;;;;;;;12.57;5.82;;;1.10;99.90;;;;;;4897848;29;20047;-83
2023/03/03 03:18:26;;;;;;;15.02;6.90;;;1.20;99.90;;;;;;4895082;29;20115;-84
2023/03/03 03:20:54;;;;;;;20.83;9.30;;;1.20;99.90;;;;;;4891319;29;20031;-84
2023/03/03 03:23:22;;;;;;;15.88;6.75;;;1.20;99.90;;;;;;4896208;29;20032;-83
2023/03/03 03:25:48;;;;;;;16.60;7.18;;;1.20;99.90;;;;;;4909651;29;20028;-85
2023/03/03 03:28:22;;;;;;;19.90;8.90;;;1.20;99.90;;;;;;4911259;29;20043;-84
2023/03/03 03:30:50;;;;;;;16.33;8.02;;;1.20;99.90;;;;;;4912389;29;20020;-83
2023/03/03 03:33:17;;;;;;;13.32;6.40;;;1.20;99.90;;;;;;4911539;29;20067;-84
2023/03/03 03:35:45;;;;;;;14.23;6.60;;;1.20;99.90;;;;;;4891802;29;20068;-84
2023/03/03 03:38:14;;;;;;;20.27;8.52;;;1.30;99.90;;;;;;4893482;29;20032;-85
2023/03/03 03:40:41;;;;;;;16.65;7.57;;;1.30;99.90;;;;;;4911503;29;20032;-83
2023/03/03 03:43:07;;;;;;;13.65;6.38;;;1.20;99.90;;;;;;4912508;29;20370;-84
2023/03/03 03:45:33;;;;;;;16.90;7.75;;;1.30;99.90;;;;;;4894297;29;20083;-84
2023/03/03 03:47:59;;;;;;;14.45;6.78;;;1.30;99.90;;;;;;4892843;29;20111;-83
2023/03/03 03:50:25;;;;;;;17.80;8.10;;;1.30;99.90;;;;;;4911583;29;20035;-84
2023/03/03 03:52:51;;;;;;;16.08;7.75;;;1.30;99.90;;;;;;4911430;29;20437;-84
2023/03/03 03:55:17;;;;;;;15.23;6.57;;;1.30;99.90;;;;;;4910628;29;20032;-84
2023/03/03 03:57:43;;;;;;;13.68;6.47;;;1.30;99.90;;;;;;4909723;29;20036;-85
2023/03/03 04:00:10;;;;;;;13.73;6.60;;;1.40;99.90;;;;;;4892424;29;20028;-84
2023/03/03 04:02:48;;;;;;;17.88;8.25;;;1.40;99.90;;;;;;4894360;29;20036;-84
2023/03/03 04:05:16;;;;;;;18.77;8.45;;;1.40;99.90;;;;;;4891547;29;20059;-85
2023/03/03 04:07:42;;;;;;;15.98;7.50;;;1.40;99.90;;;;;;4895811;29;20039;-84
2023/03/03 04:10:09;;;;;;;13.77;6.50;;;1.40;99.90;;;;;;4893460;29;20028;-84
2023/03/03 04:12:37;;;;;;;14.23;6.20;;;1.40;99.90;;;;;;4894196;29;20408;-85
2023/03/03 04:15:06;;;;;;;16.38;5.90;;;1.40;99.90;;;;;;4892159;29;20114;-84
2023/03/03 04:17:32;;;;;;;14.57;6.03;;;1.40;99.90;;;;;;4910756;29;20067;-85
2023/03/03 04:19:58;;;;;;;13.70;6.65;;;1.40;99.90;;;;;;4908351;29;20393;-84
2023/03/03 04:22:24;;;;;;;15.48;6.85;;;1.40;99.90;;;;;;4907279;29;20032;-84
2023/03/03 04:24:49;;;;;;;12.35;5.80;;;1.50;99.90;;;;;;4906639;29;20024;-84
2023/03/03 04:27:16;;;;;;;12.77;5.82;;;1.50;99.90;;;;;;4894014;29;20115;-85
2023/03/03 04:29:42;;;;;;;15.40;6.88;;;1.50;99.90;;;;;;4895594;29;20173;-83
2023/03/03 04:32:08;;;;;;;16.88;7.75;;;1.50;99.90;;;;;;4893174;29;20024;-85
2023/03/03 04:34:34;;;;;;;19.63;8.30;;;1.50;99.90;;;;;;4911865;29;20040;-85
2023/03/03 04:37:00;;;;;;;15.20;7.68;;;1.50;99.90;;;;;;4914760;29;20040;-84
2023/03/03 04:39:28;;;;;;;16.50;7.75;;;1.50;99.90;;;;;;4914731;29;20072;-85
2023/03/03 04:41:54;;;;;;;15.45;6.32;;;1.50;99.90;;;;;;4896376;29;20119;-85
2023/03/03 04:44:21;;;;;;;16.30;7.28;;;1.50;99.90;;;;;;4914744;29;20461;-83
2023/03/03 04:46:47;;;;;;;16.10;7.03;;;1.50;99.90;;;;;;4896489;29;20028;-85
2023/03/03 04:49:13;;;;;;;15.85;7.03;;;1.50;99.90;;;;;;4899002;29;20035;-84
2023/03/03 04:51:40;;;;;;;16.38;7.63;;;1.50;99.90;;;;;;4914769;29;20397;-84
2023/03/03 04:54:06;;;;;;;13.02;6.20;;;1.60;99.90;;;;;;4894861;29;20020;-85
2023/03/03 04:56:32;;;;;;;15.65;7.65;;;1.60;99.90;;;;;;4896793;29;20139;-85
2023/03/03 04:58:58;;;;;;;16.77;8.32;;;1.60;99.90;;;;;;4894338;29;20028;-83
2023/03/03 05:01:24;;;;;;;17.05;7.97;;;1.50;99.90;;;;;;4894850;29;20032;-84
2023/03/03 05:03:50;;;;;;;14.73;7.00;;;1.60;99.90;;;;;;4894742;29;20477;-83
2023/03/03 05:06:17;;;;;;;19.25;9.52;;;1.60;99.90;;;;;;4898216;29;20413;-84
2023/03/03 05:08:43;;;;;;;20.23;9.73;;;1.60;99.90;;;;;;4896475;29;20388;-84
2023/03/03 05:11:09;;;;;;;17.90;7.95;;;1.60;99.90;;;;;;4914214;29;20044;-84
2023/03/03 05:13:35;;;;;;;14.57;6.38;;;1.60;99.90;;;;;;4895753;29;20493;-84
2023/03/03 05:16:01;;;;;;;17.88;7.55;;;1.60;99.90;;;;;;4882419;29;20044;-84
2023/03/03 05:18:26;;;;;;;16.83;7.65;;;1.60;99.90;;;;;;4912008;29;20039;-84
2023/03/03 05:20:53;;;;;;;14.70;6.68;;;1.60;99.90;;;;;;4914400;29;20039;-84
2023/03/03 05:23:19;;;;;;;17.58;7.57;;;1.60;99.90;;;;;;4893099;29;20059;-85
2023/03/03 05:25:47;;;;;;;17.63;8.35;;;1.60;99.90;;;;;;4915136;29;20068;-84
2023/03/03 05:28:12;;;;;;;11.45;5.50;;;1.60;99.90;;;;;;4898544;29;20734;-84
2023/03/03 05:30:38;;;;;;;13.95;5.80;;;1.60;99.90;;;;;;4894072;29;20046;-84
2023/03/03 05:33:04;;;;;;;14.15;5.60;;;1.70;99.90;;;;;;4897883;29;20028;-85
2023/03/03 05:35:31;;;;;;;15.10;7.00;;;1.70;99.90;;;;;;4913604;29;20032;-84
2023/03/03 05:37:59;;;;;;;12.68;6.10;;;1.60;99.90;;;;;;4896381;29;20035;-83
2023/03/03 05:40:26;;;;;;;15.38;6.28;;;1.70;99.90;;;;;;4897328;29;20028;-84
2023/03/03 05:42:51;;;;;;;14.25;6.47;;;1.70;99.90;;;;;;4913896;29;20047;-85
2023/03/03 05:45:23;;;;;;;14.80;6.55;;;1.70;99.90;;;;;;4896128;29;20032;-85
2023/03/03 05:47:49;;;;;;;16.23;7.03;;;1.70;99.90;;;;;;4913247;29;20047;-83
2023/03/03 05:50:16;;;;;;;18.27;7.45;;;1.70;99.90;;;;;;4913050;29;20032;-84
2023/03/03 05:52:41;;;;;;;13.88;5.95;;;1.70;99.90;;;;;;4897910;29;20036;-84
2023/03/03 05:55:07;;;;;;;22.20;9.45;;;1.70;99.90;;;;;;4913033;29;20477;-85
2023/03/03 05:57:34;;;;;;;23.42;10.63;;;1.60;99.90;;;;;;4893978;29;20044;-85
2023/03/03 06:00:04;;;;;;;21.70;9.82;;;1.60;99.90;;;;;;4877887;29;20168;-85
2023/03/03 06:02:38;;;;;;;17.85;8.52;;;1.60;99.90;;;;;;4914484;29;20059;-84
2023/03/03 06:05:04;;;;;;;21.10;9.00;;;1.60;99.90;;;;;;4896790;29;20112;-84
2023/03/03 06:07:30;;;;;;;23.10;8.68;;;1.60;99.90;;;;;;4910479;29;20472;-85
2023/03/03 06:09:55;;;;;;;20.73;9.40;;;1.60;99.90;;;;;;4912470;29;20032;-84
2023/03/03 06:12:22;;;;;;;20.90;9.15;;;1.60;99.90;;;;;;4888692;29;20489;-84
2023/03/03 06:14:48;;;;;;;20.25;9.20;;;1.60;99.90;;;;;;4892959;29;20047;-85
2023/03/03 06:17:14;;;;;;;19.08;8.63;;;1.60;99.90;;;;;;4891358;29;20041;-85
2023/03/03 06:19:40;;;;;;;19.27;9.05;;;1.60;99.90;;;;;;4892600;29;20036;-84
2023/03/03 06:22:06;;;;;;;18.60;8.18;;;1.60;99.90;;;;;;4893821;29;20063;-85
2023/03/03 06:24:32;;;;;;;17.50;7.43;;;1.60;99.90;;;;;;4891111;29;20029;-85
2023/03/03 06:26:58;;;;;;;13.80;6.07;;;1.60;99.90;;;;;;4908830;29;20031;-85
2023/03/03 06:29:24;;;;;;;12.98;5.07;;;1.60;99.90;;;;;;4908642;29;20036;-85
2023/03/03 06:31:49;;;;;;;13.90;5.75;;;1.60;99.90;;;;;;4890762;29;20029;-85
2023/03/03 06:34:15;;;;;;;14.23;6.07;;;1.60;99.90;;;;;;4908516;29;20036;-85
2023/03/03 06:36:41;;;;;;;15.30;6.82;;;1.70;99.90;;;;;;4905583;29;20150;-85
2023/03/03 06:39:06;;;;;;;15.35;6.60;;;1.70;99.90;;;;;;4893699;29;20048;-84
2023/03/03 06:41:32;;;;;;;14.15;7.18;;;1.70;99.90;;;;;;4909707;29;20035;-85
2023/03/03 06:43:59;;;;;;;12.23;5.28;;;1.70;99.90;;;;;;4894151;29;20477;-84
2023/03/03 06:46:25;;;;;;;10.63;4.45;;;1.70;99.90;;;;;;4891032;29;20036;-85
2023/03/03 06:48:51;;;;;;;9.80;3.88;;;1.70;99.90;;;;;;4893862;29;20084;-85
2023/03/03 06:51:32;;;;;;;10.02;4.85;;;1.80;99.90;;;;;;4890089;29;20029;-85
2023/03/03 06:54:02;;;;;;;12.25;5.85;;;1.70;99.90;;;;;;4891469;29;20092;-85
2023/03/03 06:56:28;;;;;;;12.35;4.82;;;1.70;99.90;;;;;;4893698;29;20041;-84
2023/03/03 06:58:59;;;;;;;12.80;5.63;;;1.70;99.90;;;;;;4890569;29;20033;-85
2023/03/03 07:01:26;;;;;;;11.48;4.97;;;1.80;99.90;;;;;;4907880;29;20029;-84
2023/03/03 07:03:52;;;;;;;10.52;5.22;;;1.80;99.90;;;;;;4891091;29;20037;-85
2023/03/03 07:06:23;;;;;;;11.82;5.28;;;1.70;99.90;;;;;;4872552;29;20035;-83
2023/03/03 07:08:50;;;;;;;9.77;4.75;;;1.80;99.90;;;;;;4889533;29;20432;-84
2023/03/03 07:11:19;;;;;;;11.68;4.25;;;1.80;99.90;;;;;;4892274;29;20048;-85
2023/03/03 07:13:51;;;;;;;9.75;3.05;;;1.80;99.90;;;;;;4891360;29;20035;-84
2023/03/03 07:16:18;;;;;;;12.70;4.90;;;1.80;99.90;;;;;;4875023;29;20646;-85
2023/03/03 07:18:53;;;;;;;11.02;4.90;;;1.90;99.90;;;;;;4890540;29;20497;-85
2023/03/03 07:21:34;;;;;;;13.48;5.95;;;1.90;99.90;;;;;;4878978;29;20032;-85
2023/03/03 07:24:25;;;;;;;12.93;5.05;;;1.80;99.90;;;;;;4879253;29;20032;-84
2023/03/03 07:26:51;;;;;;;11.15;4.85;;;1.90;99.90;;;;;;4884781;29;20163;-85
2023/03/03 07:29:29;;;;;;;9.55;3.83;;;1.90;99.90;;;;;;4878460;29;20041;-84
2023/03/03 07:31:57;;;;;;;8.23;3.30;;;2.00;99.90;;;;;;4894225;29;20067;-84
2023/03/03 07:34:34;;;;;;;12.48;5.07;;;2.00;99.90;;;;;;4879688;29;20503;-84
2023/03/03 07:37:12;;;;;;;10.52;4.40;;;2.00;99.90;;;;;;4878585;29;20048;-85
2023/03/03 07:39:42;;;;;;;10.85;4.25;;;2.00;99.90;;;;;;4879026;29;20327;-85
2023/03/03 07:42:26;;;;;;;9.10;3.60;;;2.10;99.90;;;;;;4877507;29;20040;-85
2023/03/03 07:45:01;;;;;;;9.02;3.63;;;2.10;99.90;;;;;;4878201;29;20095;-83
2023/03/03 07:47:36;;;;;;;9.02;3.47;;;2.10;99.90;;;;;;4892672;29;20033;-85
2023/03/03 07:50:18;;;;;;;6.28;2.75;;;2.10;99.90;;;;;;4878439;29;20658;-84
2023/03/03 07:53:00;;;;;;;12.50;4.57;;;2.20;99.90;;;;;;4880061;29;20124;-84
2023/03/03 07:55:34;;;;;;;9.98;4.63;;;2.20;99.90;;;;;;4863227;29;20041;-84
2023/03/03 07:58:13;;;;;;;10.15;4.22;;;2.20;99.90;;;;;;4879370;29;20056;-85
2023/03/03 08:00:39;;;;;;;10.13;4.88;;;2.20;99.90;;;;;;4879186;29;20105;-85
2023/03/03 08:03:19;;;;;;;9.43;4.05;;;2.20;99.90;;;;;;4879213;29;20530;-85
2023/03/03 08:05:50;;;;;;;7.40;3.22;;;2.30;99.90;;;;;;4890440;29;20107;-85
2023/03/03 08:08:35;;;;;;;10.27;3.75;;;2.30;99.90;;;;;;4895515;29;20024;-84
2023/03/03 08:11:02;;;;;;;8.32;3.42;;;2.30;99.90;;;;;;4839396;29;1237543;-84
2023/03/03 08:13:34;;;;;;;9.77;3.83;;;2.40;99.90;;;;;;4884310;29;20083;-84
2023/03/03 08:16:08;;;;;;;13.18;5.88;;;2.40;99.90;;;;;;4898794;29;20139;-84
2023/03/03 08:18:36;;;;;;;12.23;5.38;;;2.40;99.90;;;;;;4874450;29;20060;-85
2023/03/03 08:21:17;;;;;;;14.18;6.05;;;2.50;99.90;;;;;;4882615;29;20047;-86
2023/03/03 08:23:43;;;;;;;11.57;4.75;;;2.50;99.90;;;;;;4886205;29;20041;-84
2023/03/03 08:26:11;;;;;;;14.98;6.88;;;2.50;99.90;;;;;;4898897;29;20402;-85
2023/03/03 08:28:37;;;;;;;13.38;6.55;;;2.50;99.90;;;;;;4899653;29;20048;-85
2023/03/03 08:31:03;;;;;;;12.40;5.15;;;2.60;99.90;;;;;;4883106;29;20036;-83
2023/03/03 08:33:29;;;;;;;15.05;6.80;;;2.60;99.90;;;;;;4884574;29;20036;-85
2023/03/03 08:35:54;;;;;;;12.23;5.63;;;2.60;99.90;;;;;;4899844;29;20146;-85
2023/03/03 08:38:21;;;;;;;11.27;5.07;;;2.70;99.90;;;;;;4900362;29;20492;-85
2023/03/03 08:40:47;;;;;;;10.32;3.63;;;2.70;99.90;;;;;;4882786;29;20144;-85
2023/03/03 08:43:16;;;;;;;10.00;4.18;;;2.80;99.90;;;;;;4899850;29;20033;-85
2023/03/03 08:45:47;;;;;;;8.98;4.07;;;2.80;99.90;;;;;;4876705;29;20036;-84
2023/03/03 08:48:13;;;;;;;11.05;4.28;;;2.80;99.90;;;;;;4883700;29;20040;-84
2023/03/03 08:50:39;;;;;;;16.70;8.00;;;2.80;99.90;;;;;;4883241;29;20556;-85
2023/03/03 08:53:05;;;;;;;16.67;7.40;;;2.70;99.90;;;;;;4883593;29;20044;-85
2023/03/03 08:55:32;;;;;;;14.75;7.00;;;2.70;99.90;;;;;;4885584;29;20042;-85
2023/03/03 08:57:58;;;;;;;11.07;4.97;;;2.80;99.90;;;;;;4889773;29;20115;-86
2023/03/03 09:00:25;;;;;;;12.32;4.93;;;2.90;99.90;;;;;;4904678;29;20398;-85
2023/03/03 09:02:51;;;;;;;8.63;3.42;;;2.90;99.90;;;;;;4888386;29;20028;-86
2023/03/03 09:05:19;;;;;;;10.52;4.18;;;3.00;99.90;;;;;;4891504;29;20039;-85
2023/03/03 09:07:46;;;;;;;9.55;3.85;;;3.00;99.90;;;;;;4892280;29;20028;-85
2023/03/03 09:10:14;;;;;;;12.35;4.45;;;3.00;99.90;;;;;;4896379;29;20040;-85
2023/03/03 09:12:42;;;;;;;11.30;4.28;;;3.00;99.90;;;;;;4906668;29;20040;-86
2023/03/03 09:15:29;;;;;;;10.82;4.90;;;3.10;99.90;;;;;;4892918;29;20036;-86
2023/03/03 09:18:15;;;;;;;11.05;4.32;;;3.10;99.90;;;;;;4907196;29;20119;-85
2023/03/03 09:20:44;;;;;;;7.93;3.22;;;3.20;99.90;;;;;;4894887;29;20403;-85
2023/03/03 09:23:29;;;;;;;11.35;4.18;;;3.30;99.90;;;;;;4891286;29;20070;-86
2023/03/03 09:25:57;;;;;;;7.78;2.90;;;3.20;99.90;;;;;;4894727;29;20040;-86
2023/03/03 09:28:29;;;;;;;11.90;4.47;;;3.20;99.90;;;;;;4891582;29;20053;-86
2023/03/03 09:31:00;;;;;;;10.00;4.45;;;3.20;99.90;;;;;;4910332;29;20032;-85
2023/03/03 09:33:42;;;;;;;9.57;3.85;;;3.20;99.90;;;;;;4881770;29;20036;-88
2023/03/03 09:36:20;;;;;;;7.57;3.30;;;3.30;99.90;;;;;;4886030;29;20061;-91
2023/03/03 09:38:46;;;;;;;7.85;3.22;;;3.40;99.90;;;;;;4885092;29;20139;-87
2023/03/03 09:41:24;;;;;;;7.05;2.80;;;3.50;99.90;;;;;;4885548;29;20033;-89
2023/03/03 09:44:12;;;;;;;7.55;2.67;;;3.50;99.90;;;;;;4886180;29;20037;-89
2023/03/03 09:47:13;;;;;;;5.53;2.20;;;3.60;99.90;;;;;;4886548;29;20506;-86
2023/03/03 09:49:57;;;;;;;4.95;1.88;;;3.80;99.90;;;;;;4829377;29;20038;-91
2023/03/03 09:52:43;;;;;;;7.95;2.95;;;3.90;99.90;;;;;;4813352;29;20226;-90
2023/03/03 09:55:23;;;;;;;6.68;2.38;;;3.80;99.90;;;;;;4811669;29;20206;-86
2023/03/03 09:58:15;;;;;;;7.85;2.78;;;3.80;99.90;;;;;;4813765;29;20637;-87
2023/03/03 10:01:02;;;;;;;7.88;2.95;;;3.90;99.90;;;;;;4828119;29;20050;-87
2023/03/03 10:04:04;;;;;;;5.25;2.35;;;4.00;99.90;;;;;;4814923;29;20450;-85
2023/03/03 10:06:53;;;;;;;3.47;1.15;;;4.10;99.90;;;;;;4821455;29;20050;-87
2023/03/03 10:09:56;;;;;;;4.68;2.08;;;4.20;99.90;;;;;;4829015;29;20030;-85
2023/03/03 10:12:26;;;;;;;5.43;1.98;;;4.30;99.90;;;;;;4811840;29;20491;-87
2023/03/03 10:15:25;;;;;;;5.50;2.17;;;4.30;99.90;;;;;;4827890;29;20361;-86
2023/03/03 10:17:56;;;;;;;5.00;1.70;;;4.40;99.90;;;;;;4813700;29;20152;-86
2023/03/03 10:20:48;;;;;;;5.25;2.20;;;4.40;99.90;;;;;;4827333;29;20040;-88
2023/03/03 10:23:33;;;;;;;11.65;5.70;;;4.30;99.90;;;;;;4832336;29;20409;-90
2023/03/03 10:26:19;;;;;;;9.77;4.05;;;4.10;99.90;;;;;;4885431;29;20037;-90
2023/03/03 10:28:52;;;;;;;7.75;3.72;;;4.30;99.90;;;;;;4883905;29;20093;-90
2023/03/03 10:31:36;;;;;;;9.20;4.43;;;4.50;99.90;;;;;;4898362;29;20439;-88
2023/03/03 10:34:04;;;;;;;9.85;3.97;;;4.40;99.90;;;;;;4893150;29;20039;-88
2023/03/03 10:36:51;;;;;;;8.50;3.92;;;4.50;99.90;;;;;;4885009;29;20052;-89
2023/03/03 10:39:56;;;;;;;8.48;3.08;;;4.70;99.90;;;;;;4885465;29;20127;-89
2023/03/03 10:42:59;;;;;;;10.98;4.60;;;4.90;99.90;;;;;;4882188;29;20037;-87
2023/03/03 10:45:44;;;;;;;9.02;4.40;;;4.80;99.90;;;;;;4880688;29;20064;-84
2023/03/03 10:48:33;;;;;;;6.38;3.10;;;4.90;99.90;;;;;;4897066;29;20595;-87
2023/03/03 10:51:31;;;;;;;6.27;3.03;;;5.10;99.90;;;;;;4878672;29;20871;-88
2023/03/03 10:54:29;;;;;;;6.97;2.50;;;5.30;99.90;;;;;;4881195;29;20196;-87
2023/03/03 10:57:12;;;;;;;6.68;2.47;;;5.60;99.90;;;;;;4880700;29;20079;-89
2023/03/03 10:59:59;;;;;;;7.28;3.20;;;5.60;99.90;;;;;;4879948;29;20060;-88
2023/03/03 11:03:00;;;;;;;6.60;2.97;;;5.70;99.90;;;;;;4864691;29;20055;-85
2023/03/03 11:05:37;;;;;;;;;;;6.00;99.90;;;;;;4881209;29;20560;-88
2023/03/03 11:08:14;;;;;;;6.18;2.00;;;6.00;99.90;;;;;;4880320;29;19915;-89
2023/03/03 11:11:01;;;;;;;7.72;3.08;;;5.90;99.90;;;;;;4880546;29;20486;-91
2023/03/03 11:13:46;;;;;;;7.80;3.85;;;5.80;99.90;;;;;;4883715;29;20640;-87
2023/03/03 11:16:46;;;;;;;7.03;3.55;;;5.60;99.90;;;;;;4884215;29;20090;-89
2023/03/03 11:19:26;;;;;;;5.53;2.90;;;5.80;99.90;;;;;;4884164;29;20046;-86
2023/03/03 11:22:16;;;;;;;8.68;3.78;;;6.00;99.90;;;;;;4883486;29;20047;-89
2023/03/03 11:25:00;;;;;;;7.13;3.88;;;5.60;99.90;;;;;;4883443;29;20114;-87
2023/03/03 11:27:44;;;;;;;9.50;3.80;;;5.60;99.90;;;;;;4899338;29;20046;-89
2023/03/03 11:30:21;;;;;;;8.85;3.20;;;5.60;99.90;;;;;;4895419;29;20044;-87
2023/03/03 11:33:08;;;;;;;7.78;3.00;;;5.80;99.90;;;;;;4884165;29;20043;-91
2023/03/03 11:35:46;;;;;;;6.40;2.38;;;5.90;99.90;;;;;;4884087;29;20040;-88
2023/03/03 11:38:40;;;;;;;6.10;2.33;;;5.90;99.90;;;;;;4899277;29;20069;-87
2023/03/03 11:41:27;;;;;;;5.03;1.83;;;6.00;99.90;;;;;;4883114;29;20040;-86
2023/03/03 11:44:26;;;;;;;5.03;2.15;;;6.00;99.90;;;;;;4883786;29;20047;-90
2023/03/03 11:47:10;;;;;;;5.85;2.17;;;6.10;99.90;;;;;;4883790;29;20114;-88
2023/03/03 11:49:52;;;;;;;5.40;2.05;;;6.40;99.90;;;;;;4874842;29;20541;-93
2023/03/03 11:52:38;;;;;;;6.57;2.47;;;6.70;99.90;;;;;;4882883;29;20361;-89
2023/03/03 11:55:13;;;;;;;11.77;5.13;;;6.80;99.90;;;;;;4899044;29;20036;-89
2023/03/03 11:57:49;;;;;;;9.25;4.18;;;6.80;99.90;;;;;;4884497;29;20078;-88
2023/03/03 12:00:43;;;;;;;7.40;3.17;;;7.10;99.90;;;;;;4877943;29;20024;-87
2023/03/03 12:03:30;;;;;;;9.70;3.60;;;7.00;99.90;;;;;;4891837;29;20478;-90
2023/03/03 12:06:27;;;;;;;9.57;4.32;;;7.40;99.90;;;;;;4891479;29;20040;-92
2023/03/03 12:09:14;;;;;;;9.73;3.90;;;7.30;99.90;;;;;;4911003;29;20028;-86
2023/03/03 12:11:46;;;;;;;7.18;3.67;;;7.10;99.90;;;;;;4891736;29;20405;-86
2023/03/03 12:14:36;;;;;;;8.20;3.67;;;7.10;99.90;;;;;;4910752;29;20111;-92
2023/03/03 12:17:24;;;;;;;6.32;2.72;;;7.30;99.90;;;;;;4908945;29;20048;-87
2023/03/03 12:19:55;;;;;;;5.57;2.30;;;7.40;99.90;;;;;;4911802;29;20035;-88
2023/03/03 12:22:34;;;;;;;6.65;3.25;;;7.50;99.90;;;;;;4893440;29;20119;-88
2023/03/03 12:25:41;;;;;;;5.60;3.15;;;7.50;99.90;;;;;;4892503;29;20532;-85
2023/03/03 12:28:16;;;;;;;6.13;3.05;;;7.50;99.90;;;;;;4838219;29;20036;-87
2023/03/03 12:30:50;;;;;;;4.60;1.67;;;7.90;99.90;;;;;;4823094;29;20068;-86
2023/03/03 12:33:28;;;;;;;3.03;1.20;;;7.80;99.90;;;;;;4823119;29;20070;-91
2023/03/03 12:36:05;;;;;;;3.90;1.52;;;7.70;99.90;;;;;;4823168;29;20099;-87
2023/03/03 12:38:50;;;;;;;4.60;1.80;;;8.00;99.90;;;;;;4840348;29;20125;-86
2023/03/03 12:41:40;;;;;;;3.78;1.20;;;8.30;99.90;;;;;;4832538;29;20493;-84
2023/03/03 12:44:28;;;;;;;6.65;2.20;;;8.60;99.90;;;;;;4835644;29;20045;-85
2023/03/03 12:47:18;;;;;;;8.65;4.47;;;8.00;99.90;;;;;;4846623;29;20125;-86
2023/03/03 12:49:50;;;;;;;6.63;3.97;;;7.40;99.90;;;;;;4838372;29;20478;-87
2023/03/03 12:52:27;;;;;;;6.40;3.05;;;7.30;99.90;;;;;;4838887;29;20073;-87
2023/03/03 12:55:03;;;;;;;4.97;2.10;;;7.40;99.90;;;;;;4803128;29;20477;-88
2023/03/03 12:57:31;;;;;;;3.42;1.38;;;7.50;99.90;;;;;;4830054;29;20400;-88
2023/03/03 13:00:29;;;;;;;3.03;1.15;;;7.70;99.90;;;;;;4867606;29;20260;-87
2023/03/03 13:03:31;;;;;;;3.67;1.17;;;7.90;99.90;;;;;;4896154;29;20036;-89
2023/03/03 13:06:07;;;;;;;4.32;1.60;;;8.20;99.90;;;;;;4889426;29;20072;-89
2023/03/03 13:08:52;;;;;;;4.38;1.65;;;8.20;99.90;;;;;;4887155;29;20445;-90
2023/03/03 13:11:44;;;;;;;5.00;2.05;;;8.40;99.90;;;;;;4902921;29;20163;-86
2023/03/03 13:14:24;;;;;;;4.43;1.58;;;8.20;99.90;;;;;;4885515;29;20124;-88
2023/03/03 13:16:53;;;;;;;4.40;1.67;;;8.00;99.90;;;;;;4901975;29;20501;-88
2023/03/03 13:19:39;;;;;;;2.45;0.93;;;7.80;99.90;;;;;;4885878;29;20032;-89
2023/03/03 13:22:24;;;;;;;3.65;1.20;;;7.80;99.90;;;;;;4886045;29;20091;-89
2023/03/03 13:25:25;;;;;;;4.40;1.48;;;7.80;99.90;;;;;;4887605;29;20052;-90